createdAt,value
2023-02-18T00:01:30.807Z,99.90
2023-02-18T00:03:59.558Z,99.90
2023-02-18T00:06:36.751Z,99.90
2023-02-18T00:09:05.018Z,99.90
2023-02-18T00:11:35.201Z,99.90
2023-02-18T00:14:04.140Z,99.90
2023-02-18T00:16:31.999Z,99.90
2023-02-18T00:19:01.534Z,99.90
2023-02-18T00:21:29.136Z,99.90
2023-02-18T00:26:23.445Z,99.90
2023-02-18T00:28:51.864Z,99.90
2023-02-18T00:31:23.477Z,99.90
2023-02-18T00:36:19.788Z,99.90
2023-02-18T00:38:52.078Z,99.90
2023-02-18T00:41:20.385Z,99.90
2023-02-18T00:46:14.881Z,99.90
2023-02-18T00:48:41.881Z,99.90
2023-02-18T00:51:09.420Z,99.90
2023-02-18T00:53:36.841Z,98.00
2023-02-18T00:56:04.536Z,97.70
2023-02-18T00:58:31.757Z,97.80
2023-02-18T01:00:58.642Z,97.90
2023-02-18T01:05:53.857Z,95.50
2023-02-18T01:08:22.192Z,95.40
2023-02-18T01:10:52.709Z,95.00
2023-02-18T01:13:19.610Z,94.80
2023-02-18T01:15:46.709Z,94.10
2023-02-18T01:18:14.503Z,95.00
2023-02-18T01:20:43.562Z,94.70
2023-02-18T01:23:11.689Z,95.00
2023-02-18T01:25:39.135Z,94.70
2023-02-18T01:28:07.617Z,95.00
2023-02-18T01:30:34.831Z,94.90
2023-02-18T01:33:01.831Z,94.90
2023-02-18T01:37:56.070Z,95.50
2023-02-18T01:40:26.600Z,95.50
2023-02-18T01:42:53.498Z,96.10
2023-02-18T01:45:38.144Z,96.20
2023-02-18T01:48:10.627Z,96.60
2023-02-18T01:50:43.719Z,97.20
2023-02-18T01:53:10.812Z,97.30
2023-02-18T01:55:39.337Z,97.50
2023-02-18T01:58:07.087Z,97.10
2023-02-18T02:05:32.586Z,97.30
2023-02-18T02:08:01.139Z,97.10
2023-02-18T02:10:53.325Z,97.40
2023-02-18T02:13:34.389Z,97.80
2023-02-18T02:16:17.640Z,98.00
2023-02-18T02:19:19.056Z,98.20
2023-02-18T02:22:31.326Z,98.40
2023-02-18T02:27:38.872Z,99.10
2023-02-18T02:30:42.703Z,99.10
2023-02-18T02:33:24.861Z,99.40
2023-02-18T02:36:10.269Z,99.50
2023-02-18T02:38:47.669Z,99.70
2023-02-18T02:42:03.921Z,99.90
2023-02-18T02:44:43.764Z,99.70
2023-02-18T02:47:25.396Z,99.60
2023-02-18T02:50:12.908Z,99.70
2023-02-18T02:52:50.104Z,99.80
2023-02-18T02:57:56.371Z,99.90
2023-02-18T03:01:02.009Z,99.90
2023-02-18T03:03:45.710Z,99.90
2023-02-18T03:06:18.966Z,99.90
2023-02-18T03:09:12.731Z,99.90
2023-02-18T03:11:52.520Z,99.90
2023-02-18T03:14:34.699Z,99.90
2023-02-18T03:17:25.247Z,99.50
2023-02-18T03:20:13.550Z,99.50
2023-02-18T03:22:46.692Z,98.90
2023-02-18T03:25:14.591Z,99.10
2023-02-18T03:28:04.186Z,98.60
2023-02-18T03:30:37.069Z,97.50
2023-02-18T03:33:07.585Z,97.70
2023-02-18T03:35:36.929Z,97.30
2023-02-18T03:38:16.654Z,97.30
2023-02-18T03:48:05.834Z,97.20
2023-02-18T03:50:32.676Z,97.00
2023-02-18T03:55:27.012Z,97.20
2023-02-18T03:57:54.098Z,97.40
2023-02-18T04:02:48.480Z,98.10
2023-02-18T04:05:15.453Z,98.30
2023-02-18T04:10:10.306Z,98.80
2023-02-18T04:12:37.149Z,99.20
2023-02-18T04:15:04.710Z,99.70
2023-02-18T04:17:33.734Z,99.90
2023-02-18T04:20:00.638Z,99.80
2023-02-18T04:22:27.546Z,99.70
2023-02-18T04:24:54.418Z,99.40
2023-02-18T04:32:16.090Z,99.50
2023-02-18T04:34:43.034Z,99.50
2023-02-18T04:37:10.129Z,99.90
2023-02-18T04:39:36.976Z,99.80
2023-02-18T04:42:08.929Z,99.90
2023-02-18T04:44:36.849Z,99.90
2023-02-18T04:47:05.877Z,99.90
2023-02-18T04:49:32.914Z,99.90
2023-02-18T04:54:27.066Z,99.90
2023-02-18T04:56:54.465Z,99.90
2023-02-18T04:59:21.711Z,99.90
2023-02-18T05:06:44.757Z,99.90
2023-02-18T05:09:12.227Z,99.90
2023-02-18T05:14:07.229Z,99.90
2023-02-18T05:21:28.925Z,99.90
2023-02-18T05:26:23.131Z,99.90
2023-02-18T05:28:50.673Z,99.90
2023-02-18T05:33:45.024Z,99.90
2023-02-18T05:38:39.222Z,99.90
2023-02-18T05:41:06.114Z,99.90
2023-02-18T05:58:37.116Z,99.90
2023-02-18T06:05:59.060Z,99.90
2023-02-18T06:08:25.994Z,99.90
2023-02-18T06:15:50.062Z,99.90
2023-02-18T06:20:44.365Z,99.90
2023-02-18T06:23:11.722Z,99.90
2023-02-18T06:33:04.674Z,99.90
2023-02-18T06:42:53.341Z,99.90
2023-02-18T06:47:47.530Z,99.90
2023-02-18T06:50:14.708Z,99.90
2023-02-18T06:55:12.439Z,99.90
2023-02-18T06:57:39.274Z,99.90
2023-02-18T07:00:08.328Z,99.90
2023-02-18T07:05:02.463Z,99.90
2023-02-18T07:12:23.874Z,99.90
2023-02-18T07:17:18.652Z,99.90
2023-02-18T07:22:13.150Z,99.90
2023-02-18T07:29:34.883Z,99.90
2023-02-18T07:34:29.540Z,99.70
2023-02-18T07:39:23.631Z,99.50
2023-02-18T07:41:50.464Z,99.50
2023-02-18T07:44:17.309Z,99.60
2023-02-18T07:46:45.244Z,99.60
2023-02-18T07:51:40.415Z,99.50
2023-02-18T08:01:31.404Z,99.30
2023-02-18T08:03:58.462Z,99.30
2023-02-18T08:06:40.790Z,98.90
2023-02-18T08:09:08.154Z,98.80
2023-02-18T08:14:02.696Z,98.40
2023-02-18T08:16:29.834Z,98.10
2023-02-18T08:18:57.226Z,97.90
2023-02-18T08:21:25.606Z,98.20
2023-02-18T08:23:52.970Z,98.40
2023-02-18T08:26:21.236Z,97.80
2023-02-18T08:28:48.850Z,97.90
2023-02-18T08:31:22.558Z,97.90
2023-02-18T08:33:49.925Z,97.50
2023-02-18T08:38:44.243Z,97.70
2023-02-18T08:41:11.882Z,97.60
2023-02-18T08:43:38.730Z,97.10
2023-02-18T08:48:33.318Z,97.10
2023-02-18T08:51:00.586Z,96.50
2023-02-18T08:58:22.361Z,95.80
2023-02-18T09:05:43.831Z,95.20
2023-02-18T09:10:39.516Z,94.30
2023-02-18T09:13:06.414Z,93.80
2023-02-18T09:18:00.544Z,94.40
2023-02-18T09:20:28.262Z,94.30
2023-02-18T09:27:49.900Z,93.60
2023-02-18T09:32:44.110Z,93.50
2023-02-18T09:37:39.973Z,93.30
2023-02-18T09:40:07.604Z,93.10
2023-02-18T09:42:35.463Z,92.60
2023-02-18T09:45:07.072Z,92.50
2023-02-18T09:47:39.951Z,92.80
2023-02-18T09:50:32.514Z,92.70
2023-02-18T09:53:01.805Z,92.80
2023-02-18T09:55:38.543Z,92.70
2023-02-18T09:58:18.820Z,92.80
2023-02-18T10:00:59.516Z,92.60
2023-02-18T10:03:27.302Z,92.50
2023-02-18T10:06:04.419Z,92.60
2023-02-18T10:08:36.414Z,91.60
2023-02-18T10:11:04.071Z,90.70
2023-02-18T10:13:34.507Z,90.70
2023-02-18T10:16:03.346Z,90.00
2023-02-18T10:18:45.856Z,88.70
2023-02-18T10:21:14.538Z,89.00
2023-02-18T10:24:06.720Z,88.70
2023-02-18T10:26:36.285Z,90.30
2023-02-18T10:29:04.573Z,90.10
2023-02-18T10:31:36.370Z,88.10
2023-02-18T10:34:21.421Z,87.00
2023-02-18T10:36:56.121Z,84.70
2023-02-18T10:39:43.588Z,85.50
2023-02-18T10:42:38.235Z,81.80
2023-02-18T10:45:45.653Z,82.40
2023-02-18T10:48:38.026Z,80.50
2023-02-18T10:51:28.419Z,76.60
2023-02-18T10:53:55.923Z,75.30
2023-02-18T10:56:32.065Z,75.20
2023-02-18T10:59:14.754Z,79.20
2023-02-18T11:01:43.373Z,79.60
2023-02-18T11:04:16.056Z,78.00
2023-02-18T11:06:49.416Z,76.00
2023-02-18T11:09:44.439Z,75.60
2023-02-18T11:12:18.262Z,77.10
2023-02-18T11:14:51.484Z,77.50
2023-02-18T11:17:30.773Z,78.30
2023-02-18T11:20:01.843Z,76.80
2023-02-18T11:22:35.071Z,78.50
2023-02-18T11:25:04.848Z,77.40
2023-02-18T11:27:55.514Z,77.90
2023-02-18T11:30:33.727Z,77.20
2023-02-18T11:33:07.216Z,78.90
2023-02-18T11:35:34.782Z,79.50
2023-02-18T11:38:04.259Z,81.30
2023-02-18T11:43:27.199Z,81.30
2023-02-18T11:46:09.057Z,81.50
2023-02-18T11:51:07.175Z,83.30
2023-02-18T11:53:37.784Z,81.50
2023-02-18T11:56:16.194Z,80.70
2023-02-18T11:58:48.441Z,81.20
2023-02-18T12:01:39.469Z,82.20
2023-02-18T12:04:14.559Z,80.90
2023-02-18T12:06:52.975Z,81.70
2023-02-18T12:09:35.381Z,82.20
2023-02-18T12:12:14.645Z,81.90
2023-02-18T12:14:42.220Z,83.10
2023-02-18T12:17:37.040Z,82.20
2023-02-18T12:20:32.031Z,83.00
2023-02-18T12:23:17.563Z,82.50
2023-02-18T12:26:16.563Z,80.90
2023-02-18T12:29:01.852Z,79.00
2023-02-18T12:31:47.632Z,79.30
2023-02-18T12:34:31.483Z,80.10
2023-02-18T12:37:08.721Z,79.60
2023-02-18T12:40:12.867Z,79.00
2023-02-18T12:43:00.960Z,80.70
2023-02-18T12:45:36.996Z,81.50
2023-02-18T12:48:19.459Z,81.30
2023-02-18T12:50:58.015Z,81.50
2023-02-18T12:53:33.692Z,81.10
2023-02-18T12:56:31.055Z,81.70
2023-02-18T12:59:04.001Z,80.70
2023-02-18T13:01:51.831Z,82.10
2023-02-18T13:04:29.866Z,82.00
2023-02-18T13:07:02.243Z,80.10
2023-02-18T13:10:12.194Z,80.60
2023-02-18T13:12:54.509Z,80.10
2023-02-18T13:15:28.614Z,78.70
2023-02-18T13:17:58.431Z,77.70
2023-02-18T13:20:46.819Z,77.90
2023-02-18T13:23:34.135Z,77.50
2023-02-18T13:26:05.057Z,76.80
2023-02-18T13:28:45.123Z,76.90
2023-02-18T13:31:30.945Z,74.80
2023-02-18T13:34:30.771Z,76.10
2023-02-18T13:37:20.531Z,75.40
2023-02-18T13:39:58.279Z,75.90
2023-02-18T13:44:55.204Z,77.30
2023-02-18T13:47:45.801Z,79.10
2023-02-18T13:50:27.395Z,80.50
2023-02-18T13:53:09.445Z,81.80
2023-02-18T13:56:02.893Z,82.50
2023-02-18T13:58:35.582Z,82.90
2023-02-18T14:01:10.909Z,82.50
2023-02-18T14:03:44.011Z,82.80
2023-02-18T14:06:38.056Z,83.30
2023-02-18T14:09:14.952Z,83.00
2023-02-18T14:12:20.231Z,81.70
2023-02-18T14:14:47.202Z,81.70
2023-02-18T14:17:19.611Z,82.10
2023-02-18T14:20:01.258Z,83.80
2023-02-18T14:25:04.086Z,85.60
2023-02-18T14:30:20.317Z,86.90
2023-02-18T14:32:49.193Z,87.10
2023-02-18T14:35:32.574Z,87.80
2023-02-18T14:38:05.312Z,87.80
2023-02-18T14:43:24.169Z,87.30
2023-02-18T14:46:52.645Z,87.40
2023-02-18T14:49:24.975Z,88.10
2023-02-18T14:51:53.553Z,88.20
2023-02-18T14:54:24.709Z,88.10
2023-02-18T14:57:03.722Z,88.30
2023-02-18T14:59:36.310Z,88.40
2023-02-18T15:02:03.758Z,87.40
2023-02-18T15:07:03.854Z,87.00
2023-02-18T15:09:31.538Z,87.20
2023-02-18T15:12:04.636Z,87.10
2023-02-18T15:14:34.373Z,87.50
2023-02-18T15:17:02.402Z,87.20
2023-02-18T15:19:37.913Z,87.10
2023-02-18T15:22:04.718Z,87.70
2023-02-18T15:24:35.362Z,87.60
2023-02-18T15:27:21.701Z,87.70
2023-02-18T15:29:56.594Z,87.80
2023-02-18T15:32:29.174Z,88.10
2023-02-18T15:35:01.950Z,88.30
2023-02-18T15:37:30.630Z,88.90
2023-02-18T15:42:33.264Z,89.10
2023-02-18T15:45:17.426Z,89.10
2023-02-18T15:47:51.495Z,89.60
2023-02-18T15:50:20.410Z,89.70
2023-02-18T15:52:48.700Z,89.90
2023-02-18T15:55:32.617Z,90.00
2023-02-18T15:58:05.141Z,90.00
2023-02-18T16:00:42.847Z,90.10
2023-02-18T16:03:19.816Z,90.20
2023-02-18T16:08:27.486Z,90.40
2023-02-18T16:13:22.442Z,90.10
2023-02-18T16:15:51.474Z,90.50
2023-02-18T16:18:29.532Z,90.00
2023-02-18T16:21:03.136Z,90.20
2023-02-18T16:23:45.714Z,90.40
2023-02-18T16:26:18.299Z,91.20
2023-02-18T16:28:46.168Z,92.90
2023-02-18T16:31:13.182Z,93.50
2023-02-18T16:33:40.099Z,93.90
2023-02-18T16:36:07.605Z,94.50
2023-02-18T16:41:01.923Z,99.10
2023-02-18T16:43:32.786Z,99.90
2023-02-18T16:46:24.421Z,99.90
2023-02-18T16:48:56.019Z,99.90
2023-02-18T16:51:34.809Z,99.90
2023-02-18T16:56:33.289Z,99.90
2023-02-18T17:01:30.781Z,99.90
2023-02-18T17:03:59.263Z,99.90
2023-02-18T17:06:26.764Z,99.90
2023-02-18T17:08:54.035Z,99.90
2023-02-18T17:11:28.607Z,99.90
2023-02-18T17:16:26.230Z,99.90
2023-02-18T17:21:22.833Z,99.90
2023-02-18T17:23:50.585Z,99.90
2023-02-18T17:26:21.163Z,99.90
2023-02-18T17:28:48.546Z,99.90
2023-02-18T17:31:21.293Z,99.90
2023-02-18T17:33:48.272Z,99.90
2023-02-18T17:38:42.462Z,99.90
2023-02-18T17:41:11.457Z,99.90
2023-02-18T17:43:38.408Z,99.90
2023-02-18T17:46:06.219Z,99.90
2023-02-18T17:48:33.217Z,99.90
2023-02-18T17:51:01.284Z,99.90
2023-02-18T17:53:28.163Z,99.90
2023-02-18T17:58:22.225Z,99.90
2023-02-18T18:00:56.339Z,99.90
2023-02-18T18:03:23.428Z,99.90
2023-02-18T18:05:56.614Z,99.90
2023-02-18T18:08:23.511Z,99.90
2023-02-18T18:10:54.708Z,99.90
2023-02-18T18:13:26.141Z,99.90
2023-02-18T18:18:21.147Z,99.90
2023-02-18T18:20:51.820Z,99.90
2023-02-18T18:23:20.086Z,99.90
2023-02-18T18:25:49.530Z,99.90
2023-02-18T18:30:47.614Z,99.90
2023-02-18T18:33:21.503Z,99.90
2023-02-18T18:35:51.824Z,99.90
2023-02-18T18:38:19.420Z,99.90
2023-02-18T18:40:47.873Z,99.90
2023-02-18T18:43:20.391Z,99.90
2023-02-18T18:45:48.053Z,99.90
2023-02-18T18:48:15.300Z,99.90
2023-02-18T18:50:42.736Z,99.90
2023-02-18T18:53:28.372Z,99.90
2023-02-18T18:55:57.685Z,99.90
2023-02-18T19:00:58.642Z,99.90
2023-02-18T19:03:26.936Z,99.90
2023-02-18T19:08:22.416Z,99.90
2023-02-18T19:10:52.011Z,99.90
2023-02-18T19:15:47.396Z,99.90
2023-02-18T19:18:17.982Z,99.90
2023-02-18T19:20:45.718Z,99.90
2023-02-18T19:23:12.653Z,99.90
2023-02-18T19:25:40.850Z,99.90
2023-02-18T19:28:09.102Z,99.90
2023-02-18T19:30:37.343Z,99.90
2023-02-18T19:33:06.015Z,99.90
2023-02-18T19:35:33.532Z,99.90
2023-02-18T19:38:00.997Z,99.90
2023-02-18T19:40:30.666Z,99.90
2023-02-18T19:45:25.526Z,99.90
2023-02-18T19:47:57.563Z,99.90
2023-02-18T19:50:25.839Z,99.90
2023-02-18T19:52:54.144Z,99.90
2023-02-18T19:55:21.239Z,99.90
2023-02-18T20:00:17.916Z,99.90
2023-02-18T20:02:44.968Z,99.90
2023-02-18T20:05:13.495Z,99.90
2023-02-18T20:07:41.689Z,99.90
2023-02-18T20:10:11.438Z,99.90
2023-02-18T20:12:38.637Z,99.90
2023-02-18T20:15:05.908Z,99.90
2023-02-18T20:17:33.033Z,99.90
2023-02-18T20:20:00.377Z,99.90
2023-02-18T20:29:51.424Z,99.90
2023-02-18T20:32:19.105Z,99.90
2023-02-18T20:37:13.373Z,99.90
2023-02-18T20:42:15.970Z,99.90
2023-02-18T20:47:13.854Z,99.90
2023-02-18T20:49:41.426Z,99.90
2023-02-18T20:52:09.842Z,99.90
2023-02-18T20:57:04.479Z,99.90
2023-02-18T21:02:02.365Z,99.90
2023-02-18T21:04:29.228Z,99.90
2023-02-18T21:06:56.343Z,99.90
2023-02-18T21:09:25.016Z,99.90
2023-02-18T21:14:19.225Z,99.90
2023-02-18T21:19:18.213Z,99.90
2023-02-18T21:21:47.407Z,99.90
2023-02-18T21:26:42.823Z,99.90
2023-02-18T21:31:39.921Z,99.90
2023-02-18T21:34:09.922Z,99.90
2023-02-18T21:39:06.912Z,99.90
2023-02-18T21:41:35.068Z,99.90
2023-02-18T21:46:32.491Z,99.90
2023-02-18T21:49:05.998Z,99.90
2023-02-18T21:51:56.719Z,99.90
2023-02-18T21:54:25.783Z,99.90
2023-02-18T21:56:53.477Z,99.90
2023-02-18T21:59:26.802Z,99.90
2023-02-18T22:01:54.774Z,99.90
2023-02-18T22:04:21.726Z,99.90
2023-02-18T22:11:43.207Z,99.90
2023-02-18T22:14:15.067Z,99.90
2023-02-18T22:19:11.947Z,99.90
2023-02-18T22:21:38.794Z,99.90
2023-02-18T22:24:06.583Z,99.90
2023-02-18T22:31:30.666Z,99.90
2023-02-18T22:33:58.838Z,99.90
2023-02-18T22:36:27.453Z,99.90
2023-02-18T22:38:54.873Z,99.90
2023-02-18T22:41:23.413Z,99.90
2023-02-18T22:43:55.208Z,99.90
2023-02-18T22:46:22.494Z,99.90
2023-02-18T22:48:49.350Z,99.90
2023-02-18T22:51:40.082Z,99.90
2023-02-18T22:54:11.497Z,99.90
2023-02-18T22:56:38.438Z,99.90
2023-02-18T23:01:36.184Z,99.90
2023-02-18T23:04:07.596Z,99.90
2023-02-18T23:06:35.672Z,99.90
2023-02-18T23:09:02.684Z,99.90
2023-02-18T23:11:29.740Z,99.90
2023-02-18T23:14:15.375Z,99.90
2023-02-18T23:19:30.993Z,99.90
2023-02-18T23:21:58.183Z,99.90
2023-02-18T23:24:25.187Z,99.90
2023-02-18T23:29:19.728Z,99.90
2023-02-18T23:41:38.308Z,99.90
2023-02-18T23:46:34.754Z,99.90
2023-02-18T23:51:29.880Z,99.90
2023-02-18T23:53:57.175Z,99.90
2023-02-18T23:58:55.013Z,99.90
